Upstream stations:
Downstream station:
SHEF ID: SLOA4 Illinois River South of Siloam S
STATION TYPE:
STAGE RIV-FLOW BAT-LOAD
ft cfs volt
Ccp-Rev Ccp-Rev Ccp-Rev
(US/Central)
07/06 00:00 2.87 330 12.89
07/06 01:00 2.87 330 12.89
07/06 02:00 2.87 330 12.83
07/06 03:00 2.88 333 12.83
07/06 04:00 2.88 333 12.83
07/06 05:00 2.88 333 12.83
07/06 06:00 2.87 330 12.83
07/06 07:00 2.89 337 12.83
07/06 08:00 2.88 333 12.89
07/06 09:00 2.88 333 13.00
07/06 10:00 2.87 330 13.36
07/06 11:00 2.87 330 13.24
07/06 12:00 2.87 330 13.24
07/06 13:00 2.87 330 13.24
07/06 14:00 2.86 326 13.12
07/06 15:00 2.85 323 13.00
07/06 16:00 2.86 326 13.00
07/06 17:00 2.85 323 13.00
07/06 18:00 2.85 323 12.95
07/06 19:00 2.85 323 12.95
07/06 20:00 2.84 319 13.00
07/06 21:00 2.85 323 12.95
07/06 22:00 2.83 316 12.89
07/06 23:00 2.83 316 12.89